Time;durP1;ratioP1;P1;durP2;ratioP2;P2;SDS_P1;SDS_P2;PMS_P1;PMS_P2;Temp;Humidity;BMP_temperature;BMP_pressure;BME280_temperature;BME280_humidity;BME280_pressure;Samples;Min_cycle;Max_cycle;Signal;HPM_P1;HPM_P2
2022/08/24 00:01:42;;;;;;;9.20;3.80;;;17.80;56.90;;;;;;6221448;23;20412;-83
2022/08/24 00:04:10;;;;;;;9.20;3.53;;;17.90;57.90;;;;;;6219356;23;20445;-84
2022/08/24 00:06:37;;;;;;;12.30;4.60;;;17.90;57.90;;;;;;6229998;23;20422;-83
2022/08/24 00:09:04;;;;;;;7.50;3.90;;;17.80;56.80;;;;;;6220745;23;20748;-84
2022/08/24 00:11:31;;;;;;;10.10;3.67;;;17.90;58.10;;;;;;6220315;23;20466;-82
2022/08/24 00:13:58;;;;;;;9.60;3.93;;;17.80;59.80;;;;;;6220077;23;20433;-84
2022/08/24 00:16:25;;;;;;;8.47;3.20;;;17.70;59.00;;;;;;6220302;23;20415;-84
2022/08/24 00:18:59;;;;;;;10.83;3.80;;;17.80;58.50;;;;;;6230481;23;20406;-84
2022/08/24 00:21:27;;;;;;;7.23;3.20;;;17.80;59.80;;;;;;6230849;23;20746;-85
2022/08/24 00:23:58;;;;;;;12.33;3.93;;;17.80;59.90;;;;;;6230032;23;20441;-84
2022/08/24 00:26:29;;;;;;;9.30;3.13;;;17.70;58.90;;;;;;6230309;23;20876;-83
2022/08/24 00:31:47;;;;;;;6.00;3.07;;;17.60;58.40;;;;;;6228200;23;20447;-83
2022/08/24 00:34:26;;;;;;;;;;;;;;;;;;;;;
2022/08/24 00:40:10;;;;;;;9.30;4.60;;;17.70;60.60;;;;;;6220230;23;20879;-84
2022/08/24 00:42:37;;;;;;;7.53;3.60;;;17.60;60.70;;;;;;6219940;23;20416;-84
2022/08/24 00:45:10;;;;;;;9.03;3.50;;;17.50;61.20;;;;;;6219846;23;20446;-84
2022/08/24 00:47:44;;;;;;;10.57;3.77;;;17.50;62.90;;;;;;6220190;23;20403;-84
2022/08/24 00:50:14;;;;;;;13.53;3.53;;;17.50;62.10;;;;;;6220078;23;20408;-84
2022/08/24 00:52:48;;;;;;;8.37;3.43;;;17.50;62.40;;;;;;6220039;23;20415;-84
2022/08/24 00:55:29;;;;;;;5.47;3.03;;;17.50;64.30;;;;;;6219267;23;20433;-84
2022/08/24 00:57:59;;;;;;;11.40;3.93;;;17.40;61.70;;;;;;6220113;23;20841;-84
2022/08/24 01:00:31;;;;;;;10.47;3.67;;;17.30;62.30;;;;;;6230097;23;20436;-84
2022/08/24 01:03:05;;;;;;;6.80;3.80;;;17.30;63.40;;;;;;6220474;23;20398;-84
2022/08/24 01:05:34;;;;;;;6.73;3.50;;;17.20;63.60;;;;;;6220544;23;20517;-85
2022/08/24 01:08:04;;;;;;;8.67;3.10;;;17.10;63.70;;;;;;6219367;23;20460;-83
2022/08/24 01:10:35;;;;;;;6.10;3.30;;;17.10;63.20;;;;;;6219999;23;20447;-84
2022/08/24 01:13:06;;;;;;;7.70;4.17;;;17.00;64.20;;;;;;6219394;23;20398;-83
2022/08/24 01:15:36;;;;;;;7.67;3.67;;;17.00;64.30;;;;;;6219119;23;20438;-84
2022/08/24 01:23:56;;;;;;;8.90;3.60;;;17.00;65.30;;;;;;6217266;23;20451;-83
2022/08/24 01:26:32;;;;;;;10.10;3.77;;;17.00;65.70;;;;;;6220402;23;20451;-83
2022/08/24 01:29:07;;;;;;;10.80;3.80;;;16.90;65.90;;;;;;6219407;23;20416;-84
2022/08/24 01:31:40;;;;;;;7.97;3.70;;;16.90;68.10;;;;;;6220141;23;20395;-83
2022/08/24 01:34:09;;;;;;;7.40;2.80;;;16.80;66.80;;;;;;6220217;23;20429;-83
2022/08/24 01:36:45;;;;;;;14.30;4.60;;;16.80;66.00;;;;;;6219913;23;20413;-84
2022/08/24 01:39:24;;;;;;;8.63;5.37;;;16.80;68.60;;;;;;6229127;23;20446;-82
2022/08/24 01:42:13;;;;;;;7.37;4.70;;;16.70;71.10;;;;;;6219579;23;20465;-83
2022/08/24 01:44:50;;;;;;;11.33;5.20;;;16.70;70.00;;;;;;6208512;23;20452;-83
2022/08/24 01:47:20;;;;;;;8.07;5.80;;;16.70;72.80;;;;;;6219924;23;20406;-83
2022/08/24 01:52:56;;;;;;;15.40;6.10;;;16.60;75.10;;;;;;6216403;23;20403;-83
2022/08/24 01:55:47;;;;;;;;;;;;;;;;;;;;;
2022/08/24 02:01:23;;;;;;;11.13;5.10;;;16.60;69.90;;;;;;6227489;23;20440;-84
2022/08/24 02:04:12;;;;;;;;;;;;;;;;;;;;;
2022/08/24 02:06:50;;;;;;;10.90;4.50;;;16.50;72.50;;;;;;6219381;23;20448;-84
2022/08/24 02:12:44;;;;;;;10.23;4.63;;;16.50;70.50;;;;;;6227491;23;20471;-83
2022/08/24 02:15:12;;;;;;;10.87;4.40;;;16.40;71.90;;;;;;6218985;23;20432;-84
2022/08/24 02:17:41;;;;;;;8.13;3.40;;;16.40;71.10;;;;;;6219798;23;20423;-85
2022/08/24 02:20:12;;;;;;;8.40;4.00;;;16.40;69.80;;;;;;6220498;23;20439;-84
2022/08/24 02:22:38;;;;;;;7.83;5.40;;;16.40;71.40;;;;;;6220180;23;20412;-85
2022/08/24 02:25:07;;;;;;;7.60;5.50;;;16.50;74.30;;;;;;6231268;23;20431;-84
2022/08/24 02:27:40;;;;;;;6.73;4.40;;;16.40;74.90;;;;;;6232575;23;20415;-84
2022/08/24 02:30:09;;;;;;;8.40;5.83;;;16.30;74.80;;;;;;6222165;23;20407;-84
2022/08/24 02:32:36;;;;;;;6.97;4.83;;;16.20;74.80;;;;;;6222510;23;20739;-84
2022/08/24 02:35:13;;;;;;;17.23;15.87;;;16.30;75.50;;;;;;6222113;23;20424;-83
2022/08/24 02:37:47;;;;;;;17.93;16.50;;;16.00;80.40;;;;;;6222535;23;20423;-85
2022/08/24 02:40:21;;;;;;;15.03;13.73;;;16.00;80.30;;;;;;6222278;23;20392;-84
2022/08/24 02:42:52;;;;;;;12.23;11.27;;;16.10;82.50;;;;;;6222639;23;20395;-84
2022/08/24 02:45:20;;;;;;;10.33;9.43;;;16.10;81.60;;;;;;6221948;23;20439;-84
2022/08/24 02:47:48;;;;;;;10.63;9.50;;;16.20;81.40;;;;;;6221795;23;20495;-84
2022/08/24 02:53:05;;;;;;;24.00;22.67;;;16.20;82.60;;;;;;6206834;23;20423;-84
2022/08/24 02:55:53;;;;;;;;;;;;;;;;;;;;;
2022/08/24 02:58:26;;;;;;;42.47;40.00;;;16.20;86.20;;;;;;6221233;23;20412;-84
2022/08/24 03:01:07;;;;;;;25.43;23.53;;;16.40;87.10;;;;;;6222155;23;20455;-84
2022/08/24 03:03:54;;;;;;;27.20;25.90;;;16.40;87.10;;;;;;6231642;23;20451;-84
2022/08/24 03:06:28;;;;;;;20.53;19.13;;;16.40;86.40;;;;;;6129250;23;20474;-85
2022/08/24 03:08:57;;;;;;;14.73;13.60;;;16.40;84.80;;;;;;6213243;23;20417;-84
2022/08/24 03:11:27;;;;;;;16.87;15.80;;;16.30;83.90;;;;;;6222215;23;20426;-84
2022/08/24 03:14:04;;;;;;;18.83;17.13;;;16.30;84.90;;;;;;6222416;23;20428;-84
2022/08/24 03:16:34;;;;;;;10.97;10.17;;;16.20;85.80;;;;;;6222113;23;20400;-84
2022/08/24 03:19:04;;;;;;;11.80;10.77;;;16.10;83.20;;;;;;6221469;23;20416;-84
2022/08/24 03:21:55;;;;;;;10.17;9.13;;;16.10;84.20;;;;;;6221628;23;20454;-84
2022/08/24 03:24:30;;;;;;;12.90;11.80;;;16.00;83.60;;;;;;6070673;23;20444;-83
2022/08/24 03:27:03;;;;;;;15.23;13.90;;;15.90;83.20;;;;;;6209522;23;20507;-84
2022/08/24 03:29:35;;;;;;;12.50;11.60;;;15.90;85.60;;;;;;6222735;23;20409;-84
2022/08/24 03:32:21;;;;;;;16.07;14.60;;;15.80;84.90;;;;;;6222465;23;20402;-84
2022/08/24 03:34:48;;;;;;;21.13;19.63;;;15.80;85.70;;;;;;6222392;23;20470;-84
2022/08/24 03:37:16;;;;;;;10.33;9.33;;;15.70;86.10;;;;;;6221139;23;20914;-84
2022/08/24 03:39:57;;;;;;;10.33;9.37;;;15.80;83.00;;;;;;6222171;23;20412;-85
2022/08/24 03:42:24;;;;;;;19.87;11.80;;;15.70;82.60;;;;;;6221537;23;20404;-84
2022/08/24 03:44:52;;;;;;;14.53;13.17;;;15.60;83.30;;;;;;6221640;23;20439;-84
2022/08/24 03:47:33;;;;;;;22.57;21.27;;;15.60;84.70;;;;;;6231240;23;20404;-84
2022/08/24 03:50:02;;;;;;;47.20;44.20;;;15.60;86.10;;;;;;6221453;23;20450;-84
2022/08/24 03:52:31;;;;;;;62.83;60.13;;;15.50;88.40;;;;;;6230769;23;20470;-85
2022/08/24 03:54:58;;;;;;;98.17;94.27;;;15.40;89.70;;;;;;6222396;23;20479;-85
2022/08/24 03:57:26;;;;;;;142.10;136.60;;;15.50;91.10;;;;;;6222342;23;20895;-85
2022/08/24 03:59:54;;;;;;;146.57;141.10;;;15.30;92.40;;;;;;6220964;23;20420;-83
2022/08/24 04:02:21;;;;;;;129.90;123.90;;;15.50;93.20;;;;;;6216536;23;20412;-83
2022/08/24 04:04:48;;;;;;;118.50;113.97;;;15.50;93.20;;;;;;6217892;23;20436;-83
2022/08/24 04:07:15;;;;;;;91.10;87.70;;;15.40;93.20;;;;;;6220528;23;20763;-83
2022/08/24 04:09:42;;;;;;;47.33;44.80;;;15.40;93.20;;;;;;6220867;23;20805;-82
2022/08/24 04:12:09;;;;;;;20.40;18.70;;;15.40;91.70;;;;;;6219860;23;20412;-83
2022/08/24 04:17:21;;;;;;;19.27;17.73;;;15.40;89.60;;;;;;6259042;22;20445;-84
2022/08/24 04:19:57;;;;;;;14.77;13.37;;;15.40;89.60;;;;;;6249069;23;20396;-84
2022/08/24 04:22:24;;;;;;;53.20;50.80;;;15.20;87.00;;;;;;6259140;23;20388;-84
2022/08/24 04:24:52;;;;;;;96.00;92.17;;;15.20;90.50;;;;;;6230685;23;20504;-84
2022/08/24 04:27:31;;;;;;;86.30;82.33;;;15.20;91.60;;;;;;6231468;23;20407;-84
2022/08/24 04:30:12;;;;;;;93.33;89.17;;;15.20;91.90;;;;;;6230503;23;20470;-83
2022/08/24 04:32:40;;;;;;;59.03;56.63;;;15.10;91.90;;;;;;6230888;23;20901;-85
2022/08/24 04:35:16;;;;;;;93.80;89.90;;;15.10;91.90;;;;;;6229477;23;21093;-84
2022/08/24 04:58:40;;;;;;;194.93;187.17;;;15.40;95.70;;;;;;6100423;23;20471;-85
2022/08/24 05:12:01;;;;;;;155.83;149.33;;;16.20;96.30;;;;;;6155137;23;20410;-82
2022/08/24 05:14:33;;;;;;;141.20;135.53;;;16.00;95.40;;;;;;6219356;23;20486;-83
2022/08/24 05:16:59;;;;;;;98.57;94.53;;;16.10;94.90;;;;;;6218280;23;20420;-82
2022/08/24 05:19:27;;;;;;;96.70;92.47;;;16.10;93.90;;;;;;6218706;23;20415;-82
2022/08/24 05:21:53;;;;;;;57.83;54.97;;;16.20;93.50;;;;;;6217229;23;20409;-82
2022/08/24 05:24:20;;;;;;;66.00;63.10;;;16.30;92.50;;;;;;6228142;23;20759;-82
2022/08/24 05:26:51;;;;;;;49.23;47.13;;;16.40;93.00;;;;;;6218941;23;20419;-82
2022/08/24 05:29:18;;;;;;;16.07;14.97;;;16.60;92.70;;;;;;6217047;23;20428;-82
2022/08/24 05:31:45;;;;;;;15.70;6.77;;;16.80;91.60;;;;;;6218286;23;20433;-82
2022/08/24 05:34:13;;;;;;;9.27;5.17;;;17.10;90.00;;;;;;6217003;23;20431;-82
2022/08/24 05:36:42;;;;;;;16.00;5.03;;;17.60;86.70;;;;;;6218885;23;20450;-84
2022/08/24 05:48:55;;;;;;;10.70;4.33;;;18.60;71.40;;;;;;6105711;23;20412;-84
2022/08/24 05:51:45;;;;;;;10.23;4.97;;;18.70;70.50;;;;;;6227509;23;20423;-82
2022/08/24 05:54:16;;;;;;;10.30;4.27;;;18.70;69.80;;;;;;6215519;23;20845;-82
2022/08/24 05:56:46;;;;;;;10.43;4.07;;;18.90;69.10;;;;;;6227363;23;20439;-83
2022/08/24 05:59:18;;;;;;;8.50;3.73;;;18.90;69.10;;;;;;6228597;23;20440;-83
2022/08/24 06:01:49;;;;;;;8.43;4.33;;;18.90;71.20;;;;;;6229848;23;20404;-83
2022/08/24 06:04:23;;;;;;;7.20;4.70;;;18.90;72.20;;;;;;6230230;23;20437;-82
2022/08/24 06:06:51;;;;;;;9.10;5.23;;;19.00;71.90;;;;;;6230606;23;20392;-84
2022/08/24 06:09:28;;;;;;;15.00;4.60;;;19.00;70.00;;;;;;6228526;23;20440;-83
2022/08/24 06:12:30;;;;;;;8.97;5.57;;;19.10;70.30;;;;;;6229816;23;20407;-83
2022/08/24 06:15:51;;;;;;;9.27;5.10;;;19.00;72.90;;;;;;6228345;23;20446;-83
2022/08/24 06:22:07;;;;;;;16.80;6.47;;;19.30;69.50;;;;;;6217312;23;20424;-83
2022/08/24 06:31:01;;;;;;;14.93;7.13;;;19.70;67.60;;;;;;6225809;23;20424;-83
2022/08/24 06:40:10;;;;;;;8.97;5.80;;;20.30;63.00;;;;;;6214004;23;20462;-85
2022/08/24 06:42:51;;;;;;;11.90;6.90;;;20.50;60.00;;;;;;6230884;23;20786;-85
2022/08/24 06:45:36;;;;;;;12.50;5.70;;;20.60;59.10;;;;;;6228733;23;20953;-85
2022/08/24 06:48:14;;;;;;;11.57;5.73;;;20.90;57.30;;;;;;6228444;23;20412;-85
2022/08/24 06:50:43;;;;;;;11.13;5.93;;;20.90;53.80;;;;;;6227073;23;20408;-84
2022/08/24 06:53:13;;;;;;;9.80;6.03;;;21.10;52.80;;;;;;6229074;23;20948;-84
2022/08/24 06:55:52;;;;;;;16.13;5.57;;;21.20;51.50;;;;;;6229521;23;20439;-82
2022/08/24 06:58:22;;;;;;;19.97;5.80;;;21.30;49.20;;;;;;6219504;23;20431;-82
2022/08/24 07:00:49;;;;;;;14.97;6.63;;;21.30;48.60;;;;;;6219369;23;20420;-82
2022/08/24 07:03:18;;;;;;;13.80;5.97;;;21.50;47.70;;;;;;6218484;23;20710;-81
2022/08/24 07:05:50;;;;;;;12.20;5.20;;;21.70;45.90;;;;;;6219813;23;20406;-80
2022/08/24 07:08:17;;;;;;;11.17;5.50;;;21.80;46.10;;;;;;6218209;23;20405;-81
2022/08/24 07:10:43;;;;;;;13.63;6.07;;;21.80;46.00;;;;;;6218319;23;20421;-81
2022/08/24 07:13:11;;;;;;;11.80;5.33;;;21.90;45.20;;;;;;6217819;23;20410;-81
2022/08/24 07:15:38;;;;;;;10.03;5.20;;;22.00;45.10;;;;;;6227967;23;20500;-81
2022/08/24 07:18:08;;;;;;;8.60;5.10;;;22.20;43.40;;;;;;6227179;23;20430;-82
2022/08/24 07:20:41;;;;;;;11.70;5.80;;;22.20;43.20;;;;;;6217873;23;20403;-81
2022/08/24 07:23:09;;;;;;;13.20;5.30;;;22.30;43.10;;;;;;6228505;23;20417;-81
2022/08/24 07:25:36;;;;;;;13.13;6.00;;;22.30;42.70;;;;;;6219660;23;20504;-81
2022/08/24 07:28:03;;;;;;;25.17;5.93;;;22.60;42.80;;;;;;6218579;23;20504;-82
2022/08/24 07:30:30;;;;;;;12.83;5.87;;;22.50;40.60;;;;;;6219744;23;20461;-83
2022/08/24 07:32:58;;;;;;;16.73;7.00;;;22.70;40.50;;;;;;6220245;23;20428;-82
2022/08/24 07:35:28;;;;;;;17.03;5.77;;;22.80;39.50;;;;;;6228268;23;20834;-85
2022/08/24 07:37:57;;;;;;;18.47;5.93;;;23.00;39.60;;;;;;6227814;23;20493;-82
2022/08/24 07:40:24;;;;;;;9.80;6.20;;;23.10;38.20;;;;;;6219400;23;20414;-82
2022/08/24 07:42:57;;;;;;;14.57;5.40;;;23.10;38.20;;;;;;6235393;23;20490;-80
2022/08/24 07:45:29;;;;;;;10.03;6.03;;;23.20;37.00;;;;;;6236361;23;20438;-80
2022/08/24 07:47:56;;;;;;;14.43;5.33;;;23.50;36.90;;;;;;6238693;23;20421;-80
2022/08/24 07:50:25;;;;;;;12.20;5.23;;;23.60;37.20;;;;;;6236016;23;20880;-80
2022/08/24 07:52:51;;;;;;;15.83;5.47;;;23.60;35.10;;;;;;6223277;23;20743;-80
2022/08/24 07:55:20;;;;;;;11.90;6.07;;;23.60;35.00;;;;;;6219886;23;20433;-80
2022/08/24 07:57:46;;;;;;;12.67;5.13;;;23.80;33.50;;;;;;6220315;23;20514;-80
2022/08/24 08:00:16;;;;;;;15.67;5.43;;;24.20;32.20;;;;;;6220037;23;20421;-80
2022/08/24 08:03:01;;;;;;;10.47;5.40;;;24.70;30.40;;;;;;6220563;23;20417;-80
2022/08/24 08:05:27;;;;;;;12.77;5.20;;;25.20;28.10;;;;;;6221155;23;20435;-79
2022/08/24 08:07:54;;;;;;;9.60;4.90;;;25.50;23.60;;;;;;6218555;23;20921;-83
2022/08/24 08:10:23;;;;;;;11.23;4.50;;;26.00;23.80;;;;;;6218444;23;20756;-83
2022/08/24 08:12:49;;;;;;;13.50;5.60;;;26.50;22.50;;;;;;6218675;23;20416;-82
2022/08/24 08:15:25;;;;;;;13.20;5.00;;;26.90;21.00;;;;;;6218539;23;20458;-84
2022/08/24 08:20:46;;;;;;;9.90;5.00;;;27.60;17.20;;;;;;6210604;23;20415;-85
2022/08/24 08:26:15;;;;;;;11.20;5.00;;;28.00;14.30;;;;;;6231811;23;20379;-85
2022/08/24 08:28:42;;;;;;;10.40;4.70;;;28.10;13.30;;;;;;6224496;23;20408;-86
2022/08/24 08:31:12;;;;;;;18.80;4.30;;;28.30;14.40;;;;;;6229651;23;20415;-86
2022/08/24 08:33:52;;;;;;;11.17;5.23;;;28.70;10.30;;;;;;6231611;23;20934;-85
2022/08/24 08:36:26;;;;;;;9.80;5.43;;;28.80;7.50;;;;;;6229406;23;20769;-86
2022/08/24 08:38:56;;;;;;;14.43;4.03;;;29.30;8.30;;;;;;6232314;23;20426;-86
2022/08/24 08:41:57;;;;;;;8.73;4.00;;;29.70;6.90;;;;;;6230510;23;20404;-86
2022/08/24 08:44:41;;;;;;;9.70;4.40;;;29.60;4.30;;;;;;6231936;23;20423;-86
2022/08/24 08:47:19;;;;;;;14.93;4.23;;;30.00;3.00;;;;;;6231907;23;20441;-85
2022/08/24 08:50:09;;;;;;;16.73;4.57;;;29.90;1.90;;;;;;6230446;23;20435;-85
2022/08/24 08:53:15;;;;;;;8.80;3.60;;;30.30;1.00;;;;;;6229574;23;20443;-85
2022/08/24 08:55:57;;;;;;;11.07;3.43;;;30.50;1.00;;;;;;6230814;23;20446;-86
2022/08/24 08:59:05;;;;;;;10.80;4.50;;;30.50;1.00;;;;;;6232625;23;20419;-86
2022/08/24 09:01:57;;;;;;;8.47;4.10;;;30.40;1.00;;;;;;6231648;23;20762;-86
2022/08/24 09:04:53;;;;;;;7.87;3.73;;;30.80;1.00;;;;;;6231040;23;20473;-86
2022/08/24 09:07:47;;;;;;;9.10;3.93;;;31.50;1.00;;;;;;6231635;23;20466;-85
2022/08/24 09:10:48;;;;;;;8.00;3.70;;;31.10;1.00;;;;;;6230372;23;20451;-86
2022/08/24 09:13:30;;;;;;;7.47;3.43;;;31.50;1.00;;;;;;6221316;23;20944;-85
2022/08/24 09:16:26;;;;;;;8.63;3.93;;;31.80;1.00;;;;;;6230600;23;20395;-85
2022/08/24 09:19:24;;;;;;;15.83;3.47;;;32.40;1.00;;;;;;6229413;23;20490;-85
2022/08/24 09:22:14;;;;;;;14.47;4.60;;;32.70;1.00;;;;;;6230687;23;20498;-86
2022/08/24 09:24:58;;;;;;;9.07;3.53;;;32.80;1.00;;;;;;6230751;23;21020;-86
2022/08/24 09:27:41;;;;;;;8.90;3.30;;;32.70;1.00;;;;;;6229991;23;20422;-86
2022/08/24 09:30:18;;;;;;;6.40;3.27;;;31.80;1.00;;;;;;6222307;23;20418;-86
2022/08/24 09:33:19;;;;;;;8.60;2.93;;;32.20;1.00;;;;;;6230877;23;20439;-86
2022/08/24 09:36:07;;;;;;;9.53;3.63;;;32.60;1.00;;;;;;6109834;23;20764;-85
2022/08/24 09:39:13;;;;;;;8.20;3.20;;;32.50;1.00;;;;;;6221126;23;20408;-86
2022/08/24 09:42:14;;;;;;;9.53;3.33;;;33.20;1.00;;;;;;6232186;23;20434;-86
2022/08/24 09:45:30;;;;;;;12.43;4.40;;;33.00;1.00;;;;;;6230700;23;20458;-84
2022/08/24 09:48:38;;;;;;;11.07;3.43;;;33.70;1.00;;;;;;6229635;23;20459;-84
2022/08/24 09:51:38;;;;;;;9.10;3.07;;;34.60;1.00;;;;;;6232563;23;20426;-85
2022/08/24 09:54:41;;;;;;;9.67;3.20;;;34.50;1.00;;;;;;6228674;23;20458;-84
2022/08/24 09:57:29;;;;;;;9.37;3.00;;;35.20;1.00;;;;;;6215342;23;20758;-85
2022/08/24 10:00:17;;;;;;;8.00;3.43;;;35.00;1.00;;;;;;6232513;23;20392;-83
2022/08/24 10:02:56;;;;;;;9.27;3.80;;;34.60;1.00;;;;;;6221779;23;20447;-79
2022/08/24 10:05:33;;;;;;;12.00;2.93;;;34.70;1.00;;;;;;6224181;23;20493;-84
2022/08/24 10:08:22;;;;;;;13.20;3.70;;;34.10;1.00;;;;;;6221352;23;20452;-85
2022/08/24 10:10:56;;;;;;;7.03;2.57;;;34.00;1.00;;;;;;6220284;23;20409;-86
2022/08/24 10:13:32;;;;;;;8.13;3.47;;;34.50;1.00;;;;;;6231039;23;20388;-82
2022/08/24 10:16:20;;;;;;;8.83;3.30;;;34.30;1.00;;;;;;6231232;23;20418;-84
2022/08/24 10:18:59;;;;;;;6.97;3.10;;;34.70;1.00;;;;;;6222584;23;20396;-84
2022/08/24 10:21:47;;;;;;;6.77;2.90;;;34.80;1.00;;;;;;6231483;23;20404;-86
2022/08/24 10:24:34;;;;;;;8.23;3.20;;;34.40;1.00;;;;;;6221991;23;20424;-84
2022/08/24 10:27:21;;;;;;;6.47;3.47;;;34.70;1.00;;;;;;6234086;23;20900;-85
2022/08/24 10:30:23;;;;;;;14.20;3.47;;;34.10;1.00;;;;;;6232500;23;20439;-85
2022/08/24 10:33:04;;;;;;;9.60;3.47;;;34.70;1.00;;;;;;6217655;23;20410;-85
2022/08/24 10:35:54;;;;;;;10.67;3.20;;;35.60;1.00;;;;;;6222860;23;20417;-86
2022/08/24 10:41:45;;;;;;;6.77;3.37;;;35.70;1.00;;;;;;6231775;23;20362;-84
2022/08/24 10:44:47;;;;;;;9.67;3.37;;;35.80;1.00;;;;;;6220553;23;20435;-83
2022/08/24 10:47:21;;;;;;;7.83;3.10;;;36.20;1.00;;;;;;6233247;23;20416;-83
2022/08/24 10:50:22;;;;;;;6.43;3.00;;;36.60;1.00;;;;;;6225473;23;20402;-84
2022/08/24 10:53:29;;;;;;;6.20;2.63;;;36.70;1.00;;;;;;6233612;23;20392;-84
2022/08/24 11:03:11;;;;;;;14.70;3.63;;;38.10;1.00;;;;;;6183667;23;20387;-87
2022/08/24 11:05:58;;;;;;;8.17;3.33;;;37.70;1.00;;;;;;6225960;23;20444;-88
2022/08/24 11:08:32;;;;;;;9.77;3.47;;;37.50;1.00;;;;;;6225407;23;20964;-88
2022/08/24 11:11:12;;;;;;;6.90;2.60;;;37.10;1.00;;;;;;6224537;23;20385;-86
2022/08/24 11:13:57;;;;;;;9.17;2.80;;;37.10;1.00;;;;;;6215205;23;20431;-87
2022/08/24 11:16:43;;;;;;;5.93;2.87;;;37.80;1.00;;;;;;6229734;23;20436;-85
2022/08/24 11:19:13;;;;;;;10.13;2.80;;;38.70;1.00;;;;;;6225217;23;20404;-85
2022/08/24 11:22:00;;;;;;;10.33;2.90;;;39.00;1.00;;;;;;6222261;23;20394;-86
2022/08/24 11:24:52;;;;;;;7.90;2.70;;;39.00;1.00;;;;;;6233583;23;20410;-85
2022/08/24 11:28:15;;;;;;;;;;;;;;;;;;;;;
2022/08/24 11:30:43;;;;;;;6.63;3.10;;;38.90;1.00;;;;;;6171132;23;20918;-88
2022/08/24 11:33:26;;;;;;;8.73;2.30;;;38.50;1.00;;;;;;6223581;23;20416;-82
2022/08/24 11:35:53;;;;;;;7.77;2.40;;;38.20;1.00;;;;;;6227268;23;20409;-84
2022/08/24 11:38:22;;;;;;;5.37;2.10;;;38.60;1.00;;;;;;6230631;23;20435;-85
2022/08/24 11:40:55;;;;;;;4.77;2.07;;;37.20;1.00;;;;;;6233044;23;20380;-85
2022/08/24 11:43:47;;;;;;;6.10;2.00;;;37.70;1.00;;;;;;6232886;23;20555;-85
2022/08/24 11:46:20;;;;;;;5.80;2.60;;;36.50;1.00;;;;;;6228242;23;20386;-86
2022/08/24 11:48:58;;;;;;;6.70;2.40;;;37.10;1.00;;;;;;6224959;23;20390;-86
2022/08/24 11:51:37;;;;;;;7.50;2.90;;;38.20;1.00;;;;;;6221982;23;20403;-85
2022/08/24 11:54:12;;;;;;;6.57;2.97;;;38.40;1.00;;;;;;6223905;23;20405;-85
2022/08/24 11:56:53;;;;;;;6.50;2.77;;;39.30;1.00;;;;;;6228724;23;20401;-85
2022/08/24 11:59:31;;;;;;;9.47;2.13;;;40.10;1.00;;;;;;6232488;23;20424;-84
2022/08/24 12:02:03;;;;;;;5.90;2.17;;;39.60;1.00;;;;;;6230780;23;20386;-84
2022/08/24 12:05:11;;;;;;;6.20;2.20;;;39.70;1.00;;;;;;6234898;23;20466;-86
2022/08/24 12:07:55;;;;;;;7.33;1.80;;;41.10;1.00;;;;;;6234529;23;20373;-81
2022/08/24 12:10:32;;;;;;;7.03;2.67;;;40.50;1.00;;;;;;6228644;23;20474;-85
2022/08/24 12:13:06;;;;;;;7.73;2.30;;;41.50;1.00;;;;;;6232409;23;20387;-85
2022/08/24 12:15:42;;;;;;;9.03;2.10;;;40.70;1.00;;;;;;6228955;23;20432;-83
2022/08/24 12:18:21;;;;;;;28.20;3.47;;;40.30;1.00;;;;;;6230760;23;20413;-84
2022/08/24 12:20:49;;;;;;;7.43;1.97;;;40.90;1.00;;;;;;6227888;23;20401;-84
2022/08/24 12:23:24;;;;;;;7.00;2.40;;;40.50;1.00;;;;;;6227633;23;20390;-84
2022/08/24 12:26:03;;;;;;;5.60;2.20;;;38.80;1.00;;;;;;6228843;23;20366;-84
2022/08/24 12:28:37;;;;;;;6.60;1.80;;;38.40;1.00;;;;;;6229732;23;20363;-84
2022/08/24 12:31:11;;;;;;;9.23;2.43;;;38.00;1.00;;;;;;6229460;23;20363;-85
2022/08/24 12:33:43;;;;;;;8.00;2.00;;;38.40;1.00;;;;;;6231133;23;20402;-84
2022/08/24 12:36:18;;;;;;;7.03;1.70;;;38.90;1.00;;;;;;6222399;23;20377;-84
2022/08/24 12:38:53;;;;;;;5.60;2.07;;;39.30;1.00;;;;;;6224784;23;20425;-85
2022/08/24 12:41:26;;;;;;;5.00;2.00;;;39.90;1.00;;;;;;6230306;23;20480;-83
2022/08/24 12:44:01;;;;;;;9.93;2.17;;;39.60;1.00;;;;;;6232576;23;20478;-84
2022/08/24 12:46:28;;;;;;;8.80;2.23;;;39.40;1.00;;;;;;6232626;23;20370;-84
2022/08/24 12:48:58;;;;;;;7.33;1.90;;;37.90;1.00;;;;;;6233190;23;20387;-85
2022/08/24 12:51:29;;;;;;;5.87;2.43;;;37.60;1.00;;;;;;6233223;23;20390;-84
2022/08/24 12:54:23;;;;;;;8.20;2.00;;;36.70;1.00;;;;;;6233311;23;20412;-84
2022/08/24 12:57:02;;;;;;;5.87;2.43;;;36.10;1.00;;;;;;6234117;23;20395;-83
2022/08/24 12:59:35;;;;;;;8.83;2.47;;;36.70;1.00;;;;;;6233986;23;20377;-83
2022/08/24 13:02:05;;;;;;;11.13;2.43;;;38.00;1.00;;;;;;6234380;23;20378;-83
2022/08/24 13:04:58;;;;;;;5.53;2.10;;;38.90;1.00;;;;;;6232894;23;20435;-83
2022/08/24 13:07:31;;;;;;;5.30;1.70;;;40.00;1.00;;;;;;6243007;23;20378;-83
2022/08/24 13:10:34;;;;;;;6.07;1.87;;;40.80;1.00;;;;;;6233599;23;20434;-84
2022/08/24 13:13:39;;;;;;;9.90;2.30;;;41.10;1.00;;;;;;6233263;23;20393;-83
2022/08/24 13:16:09;;;;;;;6.93;2.40;;;42.70;1.00;;;;;;6225597;23;20378;-86
2022/08/24 13:19:09;;;;;;;6.63;2.13;;;43.00;1.00;;;;;;6228337;23;20896;-86
2022/08/24 13:21:57;;;;;;;6.70;2.13;;;43.00;1.00;;;;;;6227567;23;20388;-86
2022/08/24 13:24:56;;;;;;;5.50;1.83;;;43.00;1.00;;;;;;6227931;23;20406;-86
2022/08/24 13:28:03;;;;;;;6.20;2.00;;;43.60;1.00;;;;;;6227368;23;20385;-87
2022/08/24 13:31:02;;;;;;;6.33;2.23;;;42.20;1.00;;;;;;6226836;23;20381;-87
2022/08/24 13:33:42;;;;;;;11.57;2.43;;;42.20;1.00;;;;;;6224849;23;20403;-87
2022/08/24 13:36:40;;;;;;;5.87;2.23;;;42.10;1.00;;;;;;6225252;23;20412;-87
2022/08/24 13:46:19;;;;;;;5.93;1.90;;;40.90;1.00;;;;;;6276290;22;20384;-84
2022/08/24 13:49:18;;;;;;;7.80;2.30;;;40.90;1.00;;;;;;6286938;22;20468;-85
2022/08/24 13:51:59;;;;;;;7.33;1.87;;;40.40;1.00;;;;;;6275875;22;20882;-84
2022/08/24 13:54:39;;;;;;;6.53;2.20;;;40.20;1.00;;;;;;6270869;22;20440;-84
2022/08/24 13:57:29;;;;;;;9.20;2.20;;;40.20;1.00;;;;;;6255058;23;20434;-84
2022/08/24 14:00:17;;;;;;;8.00;2.33;;;39.80;1.00;;;;;;6255997;23;20434;-84
2022/08/24 14:03:01;;;;;;;7.17;2.30;;;39.00;1.00;;;;;;6256703;23;20833;-84
2022/08/24 14:06:00;;;;;;;10.30;2.13;;;38.60;1.00;;;;;;6256341;22;20434;-87
2022/08/24 14:09:01;;;;;;;5.00;2.03;;;37.40;1.00;;;;;;6233340;23;20520;-87
2022/08/24 14:12:14;;;;;;;;;;;;;;;;;;;;;
2022/08/24 14:15:10;;;;;;;6.27;2.53;;;40.40;1.00;;;;;;6254656;22;20420;-86
2022/08/24 14:28:51;;;;;;;7.87;2.37;;;38.20;1.00;;;;;;6153991;23;20679;-86
2022/08/24 14:31:32;;;;;;;8.10;2.20;;;39.00;1.00;;;;;;6165042;23;20464;-86
2022/08/24 14:34:24;;;;;;;5.80;1.97;;;38.20;1.00;;;;;;6190641;23;20825;-86
2022/08/24 14:37:10;;;;;;;8.70;2.33;;;38.40;1.00;;;;;;6248906;23;20402;-86
2022/08/24 14:40:15;;;;;;;5.67;2.07;;;39.20;1.00;;;;;;6249660;23;20445;-86
2022/08/24 14:43:06;;;;;;;12.70;2.13;;;40.80;1.00;;;;;;6246036;23;20372;-86
2022/08/24 14:45:53;;;;;;;6.30;2.27;;;41.00;1.00;;;;;;6233467;22;20439;-86
2022/08/24 14:48:30;;;;;;;4.90;1.87;;;40.40;1.00;;;;;;6229872;23;20411;-86
2022/08/24 14:51:51;;;;;;;8.03;2.03;;;40.30;1.00;;;;;;6227194;23;20442;-86
2022/08/24 14:54:36;;;;;;;6.90;1.93;;;41.20;1.00;;;;;;6229173;23;20438;-86
2022/08/24 14:57:21;;;;;;;7.27;4.00;;;40.10;1.00;;;;;;6227109;23;20390;-87
2022/08/24 15:00:07;;;;;;;5.30;1.90;;;40.20;1.00;;;;;;6227340;23;20469;-86
2022/08/24 15:03:05;;;;;;;5.53;2.07;;;40.50;1.00;;;;;;6226721;23;20477;-86
2022/08/24 15:06:04;;;;;;;6.13;1.80;;;40.90;1.00;;;;;;6225387;23;20466;-87
2022/08/24 15:12:37;;;;;;;6.43;1.83;;;40.10;1.00;;;;;;6133060;23;20373;-88
2022/08/24 15:15:25;;;;;;;7.63;2.20;;;39.00;1.00;;;;;;6225856;23;20493;-86
2022/08/24 15:18:32;;;;;;;8.00;2.00;;;38.20;1.00;;;;;;6225681;23;20435;-86
2022/08/24 15:21:24;;;;;;;5.50;1.80;;;38.30;1.00;;;;;;6224260;23;20386;-86
2022/08/24 15:24:26;;;;;;;6.30;1.90;;;38.80;1.00;;;;;;6221489;22;21816;-84
2022/08/24 15:27:09;;;;;;;6.53;2.00;;;39.50;1.00;;;;;;6286054;22;20405;-84
2022/08/24 15:30:04;;;;;;;6.67;2.23;;;39.70;1.00;;;;;;6286703;22;20906;-84
2022/08/24 15:32:47;;;;;;;8.33;2.37;;;40.20;1.00;;;;;;6285311;22;20417;-84
2022/08/24 15:35:32;;;;;;;6.70;2.10;;;40.40;1.00;;;;;;6250811;22;20484;-84
2022/08/24 15:38:45;;;;;;;6.70;2.23;;;40.70;1.00;;;;;;6255625;23;20488;-85
2022/08/24 15:41:34;;;;;;;7.90;2.33;;;40.50;1.00;;;;;;6255612;23;20385;-84
2022/08/24 15:44:09;;;;;;;9.13;2.27;;;41.10;1.00;;;;;;6257353;22;20748;-83
2022/08/24 15:46:54;;;;;;;10.87;2.30;;;40.70;1.00;;;;;;6258474;23;20453;-85
2022/08/24 15:53:02;;;;;;;5.90;2.10;;;39.50;1.00;;;;;;6222058;23;20398;-86
2022/08/24 15:55:42;;;;;;;10.73;2.37;;;39.50;1.00;;;;;;6255854;22;20438;-86
2022/08/24 15:58:35;;;;;;;4.83;1.70;;;39.40;1.00;;;;;;6245275;23;20497;-86
2022/08/24 16:04:11;;;;;;;5.83;1.87;;;39.70;1.00;;;;;;6255796;22;20425;-86